sensor_id;sensor_type;location;lat;lon;timestamp;P1;durP1;ratioP1;P2;durP2;ratioP2
31746;SDS011;18319;48.974;8.462;2022-07-29T00:01:19;2.92;;;2.72;;
31746;SDS011;18319;48.974;8.462;2022-07-29T00:03:45;3.67;;;3.38;;
31746;SDS011;18319;48.974;8.462;2022-07-29T00:06:13;3.55;;;3.35;;
31746;SDS011;18319;48.974;8.462;2022-07-29T00:08:41;3.17;;;2.97;;
31746;SDS011;18319;48.974;8.462;2022-07-29T00:11:08;3.45;;;3.28;;
31746;SDS011;18319;48.974;8.462;2022-07-29T00:13:35;3.53;;;3.33;;
31746;SDS011;18319;48.974;8.462;2022-07-29T00:16:02;4.47;;;3.45;;
31746;SDS011;18319;48.974;8.462;2022-07-29T00:18:29;3.20;;;3.00;;
31746;SDS011;18319;48.974;8.462;2022-07-29T00:20:56;3.53;;;3.22;;
31746;SDS011;18319;48.974;8.462;2022-07-29T00:23:23;3.58;;;3.38;;
31746;SDS011;18319;48.974;8.462;2022-07-29T00:25:51;3.67;;;3.30;;
31746;SDS011;18319;48.974;8.462;2022-07-29T00:28:17;4.43;;;3.50;;
31746;SDS011;18319;48.974;8.462;2022-07-29T00:30:44;3.33;;;3.03;;
31746;SDS011;18319;48.974;8.462;2022-07-29T00:33:11;3.63;;;3.33;;
31746;SDS011;18319;48.974;8.462;2022-07-29T00:35:38;3.45;;;3.25;;
31746;SDS011;18319;48.974;8.462;2022-07-29T00:38:10;3.03;;;2.83;;
31746;SDS011;18319;48.974;8.462;2022-07-29T00:40:37;3.67;;;3.38;;
31746;SDS011;18319;48.974;8.462;2022-07-29T00:43:05;4.07;;;3.08;;
31746;SDS011;18319;48.974;8.462;2022-07-29T00:45:33;3.63;;;2.95;;
31746;SDS011;18319;48.974;8.462;2022-07-29T00:47:59;3.78;;;3.55;;
31746;SDS011;18319;48.974;8.462;2022-07-29T00:50:27;4.13;;;3.90;;
31746;SDS011;18319;48.974;8.462;2022-07-29T00:52:54;3.65;;;3.40;;
31746;SDS011;18319;48.974;8.462;2022-07-29T00:55:21;3.65;;;3.20;;
31746;SDS011;18319;48.974;8.462;2022-07-29T00:57:48;3.83;;;3.53;;
31746;SDS011;18319;48.974;8.462;2022-07-29T01:00:18;4.15;;;3.75;;
31746;SDS011;18319;48.974;8.462;2022-07-29T01:02:47;4.53;;;3.67;;
31746;SDS011;18319;48.974;8.462;2022-07-29T01:05:15;3.53;;;3.20;;
31746;SDS011;18319;48.974;8.462;2022-07-29T01:07:46;3.58;;;3.38;;
31746;SDS011;18319;48.974;8.462;2022-07-29T01:10:14;3.10;;;2.90;;
31746;SDS011;18319;48.974;8.462;2022-07-29T01:12:42;3.75;;;3.55;;
31746;SDS011;18319;48.974;8.462;2022-07-29T01:15:10;3.70;;;3.35;;
31746;SDS011;18319;48.974;8.462;2022-07-29T01:17:41;2.90;;;2.70;;
31746;SDS011;18319;48.974;8.462;2022-07-29T01:20:10;3.35;;;3.15;;
31746;SDS011;18319;48.974;8.462;2022-07-29T01:22:52;4.38;;;3.42;;
31746;SDS011;18319;48.974;8.462;2022-07-29T01:28:38;4.03;;;3.30;;
31746;SDS011;18319;48.974;8.462;2022-07-29T01:31:13;3.22;;;3.03;;
31746;SDS011;18319;48.974;8.462;2022-07-29T01:33:45;4.20;;;3.35;;
31746;SDS011;18319;48.974;8.462;2022-07-29T01:36:20;3.40;;;3.20;;
31746;SDS011;18319;48.974;8.462;2022-07-29T01:38:53;3.13;;;2.92;;
31746;SDS011;18319;48.974;8.462;2022-07-29T01:41:24;2.97;;;2.83;;
31746;SDS011;18319;48.974;8.462;2022-07-29T01:43:56;3.00;;;2.90;;
31746;SDS011;18319;48.974;8.462;2022-07-29T01:46:28;3.03;;;2.78;;
31746;SDS011;18319;48.974;8.462;2022-07-29T01:48:59;3.47;;;3.17;;
31746;SDS011;18319;48.974;8.462;2022-07-29T01:51:33;3.20;;;3.00;;
31746;SDS011;18319;48.974;8.462;2022-07-29T01:54:07;2.83;;;2.63;;
31746;SDS011;18319;48.974;8.462;2022-07-29T01:56:38;4.95;;;3.30;;
31746;SDS011;18319;48.974;8.462;2022-07-29T01:59:10;4.65;;;3.40;;
31746;SDS011;18319;48.974;8.462;2022-07-29T02:01:38;4.28;;;3.60;;
31746;SDS011;18319;48.974;8.462;2022-07-29T02:04:07;3.75;;;3.55;;
31746;SDS011;18319;48.974;8.462;2022-07-29T02:06:37;3.63;;;3.33;;
31746;SDS011;18319;48.974;8.462;2022-07-29T02:09:06;3.65;;;3.35;;
31746;SDS011;18319;48.974;8.462;2022-07-29T02:11:34;3.38;;;3.17;;
31746;SDS011;18319;48.974;8.462;2022-07-29T02:14:03;4.90;;;4.25;;
31746;SDS011;18319;48.974;8.462;2022-07-29T02:16:34;3.72;;;3.45;;
31746;SDS011;18319;48.974;8.462;2022-07-29T02:19:05;4.10;;;3.80;;
31746;SDS011;18319;48.974;8.462;2022-07-29T02:21:34;3.42;;;3.28;;
31746;SDS011;18319;48.974;8.462;2022-07-29T02:24:02;4.75;;;3.40;;
31746;SDS011;18319;48.974;8.462;2022-07-29T02:26:30;4.10;;;3.70;;
31746;SDS011;18319;48.974;8.462;2022-07-29T02:28:58;3.20;;;2.88;;
31746;SDS011;18319;48.974;8.462;2022-07-29T02:31:28;4.15;;;3.28;;
31746;SDS011;18319;48.974;8.462;2022-07-29T02:33:59;3.72;;;3.30;;
31746;SDS011;18319;48.974;8.462;2022-07-29T02:36:29;3.60;;;3.40;;
31746;SDS011;18319;48.974;8.462;2022-07-29T02:38:57;3.65;;;3.35;;
31746;SDS011;18319;48.974;8.462;2022-07-29T02:41:26;3.25;;;3.05;;
31746;SDS011;18319;48.974;8.462;2022-07-29T02:43:57;3.53;;;3.22;;
31746;SDS011;18319;48.974;8.462;2022-07-29T02:46:30;3.72;;;3.35;;
31746;SDS011;18319;48.974;8.462;2022-07-29T02:49:04;3.38;;;3.20;;
31746;SDS011;18319;48.974;8.462;2022-07-29T02:51:40;3.40;;;3.20;;
31746;SDS011;18319;48.974;8.462;2022-07-29T02:54:09;3.85;;;3.58;;
31746;SDS011;18319;48.974;8.462;2022-07-29T02:56:41;3.60;;;3.30;;
31746;SDS011;18319;48.974;8.462;2022-07-29T02:59:11;3.63;;;3.42;;
31746;SDS011;18319;48.974;8.462;2022-07-29T03:01:41;3.80;;;3.50;;
31746;SDS011;18319;48.974;8.462;2022-07-29T03:04:11;3.42;;;3.22;;
31746;SDS011;18319;48.974;8.462;2022-07-29T03:06:39;3.65;;;3.45;;
31746;SDS011;18319;48.974;8.462;2022-07-29T03:09:08;3.97;;;3.72;;
31746;SDS011;18319;48.974;8.462;2022-07-29T03:11:37;3.55;;;3.35;;
31746;SDS011;18319;48.974;8.462;2022-07-29T03:14:05;4.20;;;3.90;;
31746;SDS011;18319;48.974;8.462;2022-07-29T03:16:32;3.67;;;3.47;;
31746;SDS011;18319;48.974;8.462;2022-07-29T03:19:01;4.18;;;3.88;;
31746;SDS011;18319;48.974;8.462;2022-07-29T03:21:31;3.50;;;3.30;;
31746;SDS011;18319;48.974;8.462;2022-07-29T03:23:58;3.92;;;3.63;;
31746;SDS011;18319;48.974;8.462;2022-07-29T03:26:25;5.05;;;4.10;;
31746;SDS011;18319;48.974;8.462;2022-07-29T03:28:52;4.03;;;3.80;;
31746;SDS011;18319;48.974;8.462;2022-07-29T03:31:18;3.70;;;3.50;;
31746;SDS011;18319;48.974;8.462;2022-07-29T03:33:45;4.28;;;4.00;;
31746;SDS011;18319;48.974;8.462;2022-07-29T03:36:12;3.88;;;3.58;;
31746;SDS011;18319;48.974;8.462;2022-07-29T03:38:40;3.88;;;3.53;;
31746;SDS011;18319;48.974;8.462;2022-07-29T03:41:10;3.92;;;3.72;;
31746;SDS011;18319;48.974;8.462;2022-07-29T03:43:39;3.58;;;3.38;;
31746;SDS011;18319;48.974;8.462;2022-07-29T03:46:09;4.60;;;4.03;;
31746;SDS011;18319;48.974;8.462;2022-07-29T03:48:39;4.30;;;4.00;;
31746;SDS011;18319;48.974;8.462;2022-07-29T03:51:12;4.30;;;3.80;;
31746;SDS011;18319;48.974;8.462;2022-07-29T03:53:40;3.58;;;3.38;;
31746;SDS011;18319;48.974;8.462;2022-07-29T03:56:08;4.38;;;4.07;;
31746;SDS011;18319;48.974;8.462;2022-07-29T03:58:38;4.45;;;4.03;;
31746;SDS011;18319;48.974;8.462;2022-07-29T04:01:05;4.13;;;3.83;;
31746;SDS011;18319;48.974;8.462;2022-07-29T04:03:32;5.53;;;3.70;;
31746;SDS011;18319;48.974;8.462;2022-07-29T04:06:01;4.00;;;3.75;;
31746;SDS011;18319;48.974;8.462;2022-07-29T04:08:30;4.38;;;3.90;;
31746;SDS011;18319;48.974;8.462;2022-07-29T04:10:59;4.28;;;3.97;;
31746;SDS011;18319;48.974;8.462;2022-07-29T04:13:26;4.05;;;3.83;;
31746;SDS011;18319;48.974;8.462;2022-07-29T04:15:53;4.43;;;4.03;;
31746;SDS011;18319;48.974;8.462;2022-07-29T04:18:20;4.95;;;4.63;;
31746;SDS011;18319;48.974;8.462;2022-07-29T04:23:15;4.07;;;3.67;;
31746;SDS011;18319;48.974;8.462;2022-07-29T04:25:42;4.03;;;3.72;;
31746;SDS011;18319;48.974;8.462;2022-07-29T04:28:10;5.13;;;4.28;;
31746;SDS011;18319;48.974;8.462;2022-07-29T04:30:37;6.32;;;4.43;;
31746;SDS011;18319;48.974;8.462;2022-07-29T04:33:05;4.78;;;4.47;;
31746;SDS011;18319;48.974;8.462;2022-07-29T04:35:34;4.55;;;4.25;;
31746;SDS011;18319;48.974;8.462;2022-07-29T04:38:02;5.57;;;3.97;;
31746;SDS011;18319;48.974;8.462;2022-07-29T04:40:30;4.40;;;4.10;;
31746;SDS011;18319;48.974;8.462;2022-07-29T04:42:58;5.60;;;4.60;;
31746;SDS011;18319;48.974;8.462;2022-07-29T04:45:26;4.03;;;3.72;;
31746;SDS011;18319;48.974;8.462;2022-07-29T04:47:54;4.22;;;3.92;;
31746;SDS011;18319;48.974;8.462;2022-07-29T04:50:21;5.13;;;4.28;;
31746;SDS011;18319;48.974;8.462;2022-07-29T04:52:48;6.55;;;4.60;;
31746;SDS011;18319;48.974;8.462;2022-07-29T04:55:15;5.82;;;5.03;;
31746;SDS011;18319;48.974;8.462;2022-07-29T04:57:42;5.68;;;5.00;;
31746;SDS011;18319;48.974;8.462;2022-07-29T05:00:09;6.22;;;4.63;;
31746;SDS011;18319;48.974;8.462;2022-07-29T05:02:38;5.53;;;4.95;;
31746;SDS011;18319;48.974;8.462;2022-07-29T05:05:05;7.20;;;4.43;;
31746;SDS011;18319;48.974;8.462;2022-07-29T05:07:32;6.18;;;5.45;;
31746;SDS011;18319;48.974;8.462;2022-07-29T05:09:59;4.55;;;4.25;;
31746;SDS011;18319;48.974;8.462;2022-07-29T05:12:26;5.88;;;4.20;;
31746;SDS011;18319;48.974;8.462;2022-07-29T05:14:53;4.55;;;4.15;;
31746;SDS011;18319;48.974;8.462;2022-07-29T05:17:20;4.90;;;4.57;;
31746;SDS011;18319;48.974;8.462;2022-07-29T05:19:48;4.57;;;4.18;;
31746;SDS011;18319;48.974;8.462;2022-07-29T05:22:16;4.38;;;4.07;;
31746;SDS011;18319;48.974;8.462;2022-07-29T05:24:43;5.65;;;4.82;;
31746;SDS011;18319;48.974;8.462;2022-07-29T05:27:10;5.60;;;5.10;;
31746;SDS011;18319;48.974;8.462;2022-07-29T05:29:37;5.85;;;4.68;;
31746;SDS011;18319;48.974;8.462;2022-07-29T05:32:05;5.38;;;4.97;;
31746;SDS011;18319;48.974;8.462;2022-07-29T05:34:32;10.75;;;6.22;;
31746;SDS011;18319;48.974;8.462;2022-07-29T05:37:00;5.05;;;4.65;;
31746;SDS011;18319;48.974;8.462;2022-07-29T05:39:27;4.78;;;4.38;;
31746;SDS011;18319;48.974;8.462;2022-07-29T05:41:54;5.03;;;4.60;;
31746;SDS011;18319;48.974;8.462;2022-07-29T05:44:21;5.00;;;4.10;;
31746;SDS011;18319;48.974;8.462;2022-07-29T05:46:48;5.10;;;4.70;;
31746;SDS011;18319;48.974;8.462;2022-07-29T05:49:14;4.55;;;4.18;;
31746;SDS011;18319;48.974;8.462;2022-07-29T05:51:41;4.30;;;4.00;;
31746;SDS011;18319;48.974;8.462;2022-07-29T05:54:09;4.72;;;4.38;;
31746;SDS011;18319;48.974;8.462;2022-07-29T05:56:36;4.10;;;3.80;;
31746;SDS011;18319;48.974;8.462;2022-07-29T05:59:03;5.82;;;5.07;;
31746;SDS011;18319;48.974;8.462;2022-07-29T06:01:30;4.30;;;4.00;;
31746;SDS011;18319;48.974;8.462;2022-07-29T06:03:57;4.85;;;4.07;;
31746;SDS011;18319;48.974;8.462;2022-07-29T06:06:24;7.65;;;4.25;;
31746;SDS011;18319;48.974;8.462;2022-07-29T06:08:51;7.72;;;4.20;;
31746;SDS011;18319;48.974;8.462;2022-07-29T06:11:19;4.20;;;3.92;;
31746;SDS011;18319;48.974;8.462;2022-07-29T06:13:46;4.57;;;3.95;;
31746;SDS011;18319;48.974;8.462;2022-07-29T06:16:13;5.35;;;4.95;;
31746;SDS011;18319;48.974;8.462;2022-07-29T06:18:40;4.40;;;4.10;;
31746;SDS011;18319;48.974;8.462;2022-07-29T06:21:07;5.03;;;3.95;;
31746;SDS011;18319;48.974;8.462;2022-07-29T06:23:35;5.85;;;4.47;;
31746;SDS011;18319;48.974;8.462;2022-07-29T06:26:03;6.15;;;4.45;;
31746;SDS011;18319;48.974;8.462;2022-07-29T06:28:32;7.18;;;4.15;;
31746;SDS011;18319;48.974;8.462;2022-07-29T06:30:59;8.70;;;4.07;;
31746;SDS011;18319;48.974;8.462;2022-07-29T06:33:25;4.47;;;4.07;;
31746;SDS011;18319;48.974;8.462;2022-07-29T06:35:52;3.92;;;3.47;;
31746;SDS011;18319;48.974;8.462;2022-07-29T06:38:19;3.55;;;3.13;;
31746;SDS011;18319;48.974;8.462;2022-07-29T06:40:46;5.95;;;3.88;;
31746;SDS011;18319;48.974;8.462;2022-07-29T06:43:39;4.40;;;4.00;;
31746;SDS011;18319;48.974;8.462;2022-07-29T06:46:08;7.93;;;3.80;;
31746;SDS011;18319;48.974;8.462;2022-07-29T06:48:37;5.32;;;3.20;;
31746;SDS011;18319;48.974;8.462;2022-07-29T06:51:05;3.88;;;3.20;;
31746;SDS011;18319;48.974;8.462;2022-07-29T06:53:33;3.47;;;3.28;;
31746;SDS011;18319;48.974;8.462;2022-07-29T06:56:02;3.58;;;3.30;;
31746;SDS011;18319;48.974;8.462;2022-07-29T06:58:30;3.28;;;3.05;;
31746;SDS011;18319;48.974;8.462;2022-07-29T07:01:00;3.40;;;3.10;;
31746;SDS011;18319;48.974;8.462;2022-07-29T07:03:28;4.28;;;3.45;;
31746;SDS011;18319;48.974;8.462;2022-07-29T07:05:55;5.68;;;3.47;;
31746;SDS011;18319;48.974;8.462;2022-07-29T07:08:22;3.78;;;3.30;;
31746;SDS011;18319;48.974;8.462;2022-07-29T07:10:49;3.53;;;3.22;;
31746;SDS011;18319;48.974;8.462;2022-07-29T07:13:16;3.50;;;3.20;;
31746;SDS011;18319;48.974;8.462;2022-07-29T07:15:45;3.55;;;3.03;;
31746;SDS011;18319;48.974;8.462;2022-07-29T07:18:14;4.72;;;3.58;;
31746;SDS011;18319;48.974;8.462;2022-07-29T07:20:41;3.65;;;3.30;;
31746;SDS011;18319;48.974;8.462;2022-07-29T07:23:09;4.85;;;3.08;;
31746;SDS011;18319;48.974;8.462;2022-07-29T07:25:36;7.75;;;3.08;;
31746;SDS011;18319;48.974;8.462;2022-07-29T07:28:03;3.00;;;2.67;;
31746;SDS011;18319;48.974;8.462;2022-07-29T07:30:30;3.60;;;3.30;;
31746;SDS011;18319;48.974;8.462;2022-07-29T07:32:57;4.22;;;3.00;;
31746;SDS011;18319;48.974;8.462;2022-07-29T07:35:26;5.60;;;3.33;;
31746;SDS011;18319;48.974;8.462;2022-07-29T07:37:57;4.13;;;3.72;;
31746;SDS011;18319;48.974;8.462;2022-07-29T07:40:24;2.85;;;2.65;;
31746;SDS011;18319;48.974;8.462;2022-07-29T07:42:51;3.50;;;2.97;;
31746;SDS011;18319;48.974;8.462;2022-07-29T07:45:18;3.55;;;3.35;;
31746;SDS011;18319;48.974;8.462;2022-07-29T07:47:45;7.65;;;3.03;;
31746;SDS011;18319;48.974;8.462;2022-07-29T07:50:12;5.60;;;3.47;;
31746;SDS011;18319;48.974;8.462;2022-07-29T07:52:50;3.22;;;3.00;;
31746;SDS011;18319;48.974;8.462;2022-07-29T07:55:18;4.43;;;2.78;;
31746;SDS011;18319;48.974;8.462;2022-07-29T07:57:45;3.78;;;3.47;;
31746;SDS011;18319;48.974;8.462;2022-07-29T08:00:13;3.22;;;2.90;;
31746;SDS011;18319;48.974;8.462;2022-07-29T08:02:40;10.85;;;3.50;;
31746;SDS011;18319;48.974;8.462;2022-07-29T08:05:08;4.80;;;2.38;;
31746;SDS011;18319;48.974;8.462;2022-07-29T08:07:35;2.78;;;2.58;;
31746;SDS011;18319;48.974;8.462;2022-07-29T08:10:04;5.57;;;3.33;;
31746;SDS011;18319;48.974;8.462;2022-07-29T08:12:31;2.97;;;2.80;;
31746;SDS011;18319;48.974;8.462;2022-07-29T08:14:58;3.35;;;3.05;;
31746;SDS011;18319;48.974;8.462;2022-07-29T08:17:24;3.50;;;3.10;;
31746;SDS011;18319;48.974;8.462;2022-07-29T08:19:51;2.72;;;2.33;;
31746;SDS011;18319;48.974;8.462;2022-07-29T08:22:18;2.92;;;2.40;;
31746;SDS011;18319;48.974;8.462;2022-07-29T08:24:45;2.55;;;2.35;;
31746;SDS011;18319;48.974;8.462;2022-07-29T08:27:18;2.88;;;2.60;;
31746;SDS011;18319;48.974;8.462;2022-07-29T08:29:45;3.33;;;3.03;;
31746;SDS011;18319;48.974;8.462;2022-07-29T08:32:12;4.28;;;2.30;;
31746;SDS011;18319;48.974;8.462;2022-07-29T08:34:39;7.78;;;3.05;;
31746;SDS011;18319;48.974;8.462;2022-07-29T08:37:06;3.28;;;2.10;;
31746;SDS011;18319;48.974;8.462;2022-07-29T08:39:33;5.70;;;2.63;;
31746;SDS011;18319;48.974;8.462;2022-07-29T08:42:00;2.92;;;2.30;;
31746;SDS011;18319;48.974;8.462;2022-07-29T08:44:28;5.05;;;2.72;;
31746;SDS011;18319;48.974;8.462;2022-07-29T08:46:55;3.38;;;2.38;;
31746;SDS011;18319;48.974;8.462;2022-07-29T08:49:22;4.18;;;2.30;;
31746;SDS011;18319;48.974;8.462;2022-07-29T08:51:49;2.67;;;2.47;;
31746;SDS011;18319;48.974;8.462;2022-07-29T08:54:17;3.30;;;2.72;;
31746;SDS011;18319;48.974;8.462;2022-07-29T08:56:44;3.83;;;2.45;;
31746;SDS011;18319;48.974;8.462;2022-07-29T08:59:15;5.22;;;2.70;;
31746;SDS011;18319;48.974;8.462;2022-07-29T09:01:45;2.85;;;2.00;;
31746;SDS011;18319;48.974;8.462;2022-07-29T09:04:13;2.80;;;2.40;;
31746;SDS011;18319;48.974;8.462;2022-07-29T09:06:43;3.65;;;2.40;;
31746;SDS011;18319;48.974;8.462;2022-07-29T09:09:11;2.75;;;2.20;;
31746;SDS011;18319;48.974;8.462;2022-07-29T09:11:39;4.65;;;2.33;;
31746;SDS011;18319;48.974;8.462;2022-07-29T09:14:06;3.22;;;2.40;;
31746;SDS011;18319;48.974;8.462;2022-07-29T09:16:44;3.72;;;2.55;;
31746;SDS011;18319;48.974;8.462;2022-07-29T09:19:20;2.13;;;2.03;;
31746;SDS011;18319;48.974;8.462;2022-07-29T09:21:48;4.55;;;2.13;;
31746;SDS011;18319;48.974;8.462;2022-07-29T09:24:25;2.78;;;2.55;;
31746;SDS011;18319;48.974;8.462;2022-07-29T09:27:02;5.85;;;2.28;;
31746;SDS011;18319;48.974;8.462;2022-07-29T09:29:32;2.60;;;2.40;;
31746;SDS011;18319;48.974;8.462;2022-07-29T09:32:00;5.22;;;2.03;;
31746;SDS011;18319;48.974;8.462;2022-07-29T09:34:33;3.22;;;2.15;;
31746;SDS011;18319;48.974;8.462;2022-07-29T09:37:00;5.07;;;2.20;;
31746;SDS011;18319;48.974;8.462;2022-07-29T09:39:28;3.00;;;2.25;;
31746;SDS011;18319;48.974;8.462;2022-07-29T09:41:56;2.78;;;2.13;;
31746;SDS011;18319;48.974;8.462;2022-07-29T09:44:25;2.75;;;1.80;;
31746;SDS011;18319;48.974;8.462;2022-07-29T09:46:56;2.47;;;2.30;;
31746;SDS011;18319;48.974;8.462;2022-07-29T09:49:25;3.53;;;2.10;;
31746;SDS011;18319;48.974;8.462;2022-07-29T09:51:59;3.05;;;2.33;;
31746;SDS011;18319;48.974;8.462;2022-07-29T09:54:30;8.88;;;3.10;;
31746;SDS011;18319;48.974;8.462;2022-07-29T09:57:01;2.72;;;2.55;;
31746;SDS011;18319;48.974;8.462;2022-07-29T09:59:29;5.47;;;2.13;;
31746;SDS011;18319;48.974;8.462;2022-07-29T10:01:56;4.90;;;1.80;;
31746;SDS011;18319;48.974;8.462;2022-07-29T10:04:23;6.22;;;2.40;;
31746;SDS011;18319;48.974;8.462;2022-07-29T10:06:56;2.70;;;2.50;;
31746;SDS011;18319;48.974;8.462;2022-07-29T10:09:24;4.07;;;2.28;;
31746;SDS011;18319;48.974;8.462;2022-07-29T10:12:07;2.58;;;2.00;;
31746;SDS011;18319;48.974;8.462;2022-07-29T10:14:36;2.40;;;2.15;;
31746;SDS011;18319;48.974;8.462;2022-07-29T10:17:04;2.85;;;2.55;;
31746;SDS011;18319;48.974;8.462;2022-07-29T10:19:38;7.22;;;2.47;;
31746;SDS011;18319;48.974;8.462;2022-07-29T10:22:07;3.40;;;2.25;;
31746;SDS011;18319;48.974;8.462;2022-07-29T10:24:35;3.95;;;2.65;;
31746;SDS011;18319;48.974;8.462;2022-07-29T10:27:03;2.90;;;2.35;;
31746;SDS011;18319;48.974;8.462;2022-07-29T10:29:32;2.30;;;2.10;;
31746;SDS011;18319;48.974;8.462;2022-07-29T10:35:19;3.75;;;2.40;;
31746;SDS011;18319;48.974;8.462;2022-07-29T10:38:15;3.75;;;2.20;;
31746;SDS011;18319;48.974;8.462;2022-07-29T10:40:57;4.32;;;2.30;;
31746;SDS011;18319;48.974;8.462;2022-07-29T10:43:47;5.90;;;2.72;;
31746;SDS011;18319;48.974;8.462;2022-07-29T10:46:15;4.47;;;2.00;;
31746;SDS011;18319;48.974;8.462;2022-07-29T10:51:55;2.13;;;1.92;;
31746;SDS011;18319;48.974;8.462;2022-07-29T10:54:38;6.63;;;2.08;;
31746;SDS011;18319;48.974;8.462;2022-07-29T10:57:10;2.70;;;2.10;;
31746;SDS011;18319;48.974;8.462;2022-07-29T10:59:44;2.30;;;2.13;;
31746;SDS011;18319;48.974;8.462;2022-07-29T11:05:09;2.50;;;1.85;;
31746;SDS011;18319;48.974;8.462;2022-07-29T11:07:37;2.03;;;1.90;;
31746;SDS011;18319;48.974;8.462;2022-07-29T11:10:21;3.65;;;2.00;;
31746;SDS011;18319;48.974;8.462;2022-07-29T11:12:49;2.33;;;2.22;;
31746;SDS011;18319;48.974;8.462;2022-07-29T11:15:18;1.77;;;1.67;;
31746;SDS011;18319;48.974;8.462;2022-07-29T11:20:41;5.65;;;2.05;;
31746;SDS011;18319;48.974;8.462;2022-07-29T11:23:19;2.05;;;1.60;;
31746;SDS011;18319;48.974;8.462;2022-07-29T11:28:51;1.92;;;1.80;;
31746;SDS011;18319;48.974;8.462;2022-07-29T11:31:31;1.23;;;1.13;;
31746;SDS011;18319;48.974;8.462;2022-07-29T11:34:16;2.00;;;1.60;;
31746;SDS011;18319;48.974;8.462;2022-07-29T11:39:47;2.70;;;1.70;;
31746;SDS011;18319;48.974;8.462;2022-07-29T11:42:41;1.40;;;1.23;;
31746;SDS011;18319;48.974;8.462;2022-07-29T11:45:18;1.48;;;1.38;;
31746;SDS011;18319;48.974;8.462;2022-07-29T11:47:57;1.20;;;1.10;;
31746;SDS011;18319;48.974;8.462;2022-07-29T11:50:29;1.50;;;1.40;;
31746;SDS011;18319;48.974;8.462;2022-07-29T11:52:58;1.48;;;1.38;;
31746;SDS011;18319;48.974;8.462;2022-07-29T11:55:38;1.88;;;1.30;;
31746;SDS011;18319;48.974;8.462;2022-07-29T11:58:07;3.70;;;1.45;;
31746;SDS011;18319;48.974;8.462;2022-07-29T12:00:35;1.55;;;1.45;;
31746;SDS011;18319;48.974;8.462;2022-07-29T12:03:04;3.03;;;1.30;;
31746;SDS011;18319;48.974;8.462;2022-07-29T12:05:37;1.40;;;1.30;;
31746;SDS011;18319;48.974;8.462;2022-07-29T12:08:07;1.48;;;1.30;;
31746;SDS011;18319;48.974;8.462;2022-07-29T12:10:36;4.20;;;1.40;;
31746;SDS011;18319;48.974;8.462;2022-07-29T12:13:03;2.05;;;1.33;;
31746;SDS011;18319;48.974;8.462;2022-07-29T12:15:31;1.60;;;1.17;;
31746;SDS011;18319;48.974;8.462;2022-07-29T12:17:59;5.85;;;1.83;;
31746;SDS011;18319;48.974;8.462;2022-07-29T12:20:36;2.33;;;1.20;;
31746;SDS011;18319;48.974;8.462;2022-07-29T12:23:04;1.48;;;1.38;;
31746;SDS011;18319;48.974;8.462;2022-07-29T12:25:34;2.42;;;1.10;;
31746;SDS011;18319;48.974;8.462;2022-07-29T12:28:02;1.42;;;1.35;;
31746;SDS011;18319;48.974;8.462;2022-07-29T12:30:35;2.25;;;1.25;;
31746;SDS011;18319;48.974;8.462;2022-07-29T12:33:10;4.03;;;1.58;;
31746;SDS011;18319;48.974;8.462;2022-07-29T12:35:41;1.40;;;1.30;;
31746;SDS011;18319;48.974;8.462;2022-07-29T12:38:10;1.23;;;1.13;;
31746;SDS011;18319;48.974;8.462;2022-07-29T12:40:37;1.70;;;1.30;;
31746;SDS011;18319;48.974;8.462;2022-07-29T12:43:05;1.85;;;1.67;;
31746;SDS011;18319;48.974;8.462;2022-07-29T12:45:35;2.65;;;1.40;;
31746;SDS011;18319;48.974;8.462;2022-07-29T12:48:03;1.80;;;1.30;;
31746;SDS011;18319;48.974;8.462;2022-07-29T12:50:30;1.80;;;1.70;;
31746;SDS011;18319;48.974;8.462;2022-07-29T12:53:07;3.15;;;1.85;;
31746;SDS011;18319;48.974;8.462;2022-07-29T12:55:38;4.43;;;2.25;;
31746;SDS011;18319;48.974;8.462;2022-07-29T12:58:10;1.45;;;1.35;;
31746;SDS011;18319;48.974;8.462;2022-07-29T13:00:38;2.28;;;1.52;;
31746;SDS011;18319;48.974;8.462;2022-07-29T13:03:05;1.58;;;1.40;;
31746;SDS011;18319;48.974;8.462;2022-07-29T13:05:38;1.30;;;1.20;;
31746;SDS011;18319;48.974;8.462;2022-07-29T13:08:10;3.60;;;1.38;;
31746;SDS011;18319;48.974;8.462;2022-07-29T13:10:38;1.30;;;1.10;;
31746;SDS011;18319;48.974;8.462;2022-07-29T13:13:06;1.60;;;1.02;;
31746;SDS011;18319;48.974;8.462;2022-07-29T13:15:35;1.17;;;1.05;;
31746;SDS011;18319;48.974;8.462;2022-07-29T13:18:04;1.40;;;1.25;;
31746;SDS011;18319;48.974;8.462;2022-07-29T13:20:54;2.40;;;1.40;;
31746;SDS011;18319;48.974;8.462;2022-07-29T13:23:21;2.10;;;1.30;;
31746;SDS011;18319;48.974;8.462;2022-07-29T13:25:48;1.65;;;1.38;;
31746;SDS011;18319;48.974;8.462;2022-07-29T13:28:15;1.25;;;1.20;;
31746;SDS011;18319;48.974;8.462;2022-07-29T13:30:42;3.33;;;1.50;;
31746;SDS011;18319;48.974;8.462;2022-07-29T13:33:10;1.80;;;1.30;;
31746;SDS011;18319;48.974;8.462;2022-07-29T13:35:37;4.40;;;1.40;;
31746;SDS011;18319;48.974;8.462;2022-07-29T13:38:04;2.33;;;1.13;;
31746;SDS011;18319;48.974;8.462;2022-07-29T13:40:31;1.40;;;1.30;;
31746;SDS011;18319;48.974;8.462;2022-07-29T13:43:00;1.10;;;1.00;;
31746;SDS011;18319;48.974;8.462;2022-07-29T13:45:27;2.28;;;1.00;;
31746;SDS011;18319;48.974;8.462;2022-07-29T13:47:54;4.45;;;1.70;;
31746;SDS011;18319;48.974;8.462;2022-07-29T13:50:22;2.97;;;0.85;;
31746;SDS011;18319;48.974;8.462;2022-07-29T13:52:49;1.42;;;1.02;;
31746;SDS011;18319;48.974;8.462;2022-07-29T13:55:16;1.52;;;0.82;;
31746;SDS011;18319;48.974;8.462;2022-07-29T13:57:43;1.35;;;1.10;;
31746;SDS011;18319;48.974;8.462;2022-07-29T14:00:10;2.45;;;0.98;;
31746;SDS011;18319;48.974;8.462;2022-07-29T14:02:37;2.15;;;1.10;;
31746;SDS011;18319;48.974;8.462;2022-07-29T14:05:05;1.95;;;1.17;;
31746;SDS011;18319;48.974;8.462;2022-07-29T14:07:33;1.17;;;1.10;;
31746;SDS011;18319;48.974;8.462;2022-07-29T14:10:00;4.40;;;1.00;;
31746;SDS011;18319;48.974;8.462;2022-07-29T14:12:27;1.65;;;1.40;;
31746;SDS011;18319;48.974;8.462;2022-07-29T14:14:54;1.23;;;1.23;;
31746;SDS011;18319;48.974;8.462;2022-07-29T14:17:21;1.88;;;1.23;;
31746;SDS011;18319;48.974;8.462;2022-07-29T14:19:48;1.42;;;1.20;;
31746;SDS011;18319;48.974;8.462;2022-07-29T14:22:15;2.47;;;1.00;;
31746;SDS011;18319;48.974;8.462;2022-07-29T14:24:45;1.70;;;1.13;;
31746;SDS011;18319;48.974;8.462;2022-07-29T14:27:16;1.40;;;1.20;;
31746;SDS011;18319;48.974;8.462;2022-07-29T14:29:42;1.67;;;1.10;;
31746;SDS011;18319;48.974;8.462;2022-07-29T14:32:09;1.98;;;1.10;;
31746;SDS011;18319;48.974;8.462;2022-07-29T14:34:36;2.30;;;1.05;;
31746;SDS011;18319;48.974;8.462;2022-07-29T14:37:04;2.42;;;1.00;;
31746;SDS011;18319;48.974;8.462;2022-07-29T14:39:32;2.72;;;1.23;;
31746;SDS011;18319;48.974;8.462;2022-07-29T14:42:01;1.48;;;1.05;;
31746;SDS011;18319;48.974;8.462;2022-07-29T14:44:28;2.25;;;1.15;;
31746;SDS011;18319;48.974;8.462;2022-07-29T14:46:56;2.67;;;0.93;;
31746;SDS011;18319;48.974;8.462;2022-07-29T14:49:23;1.10;;;0.90;;
31746;SDS011;18319;48.974;8.462;2022-07-29T14:51:50;1.98;;;1.10;;
31746;SDS011;18319;48.974;8.462;2022-07-29T14:54:17;1.13;;;1.10;;
31746;SDS011;18319;48.974;8.462;2022-07-29T14:56:44;2.17;;;1.33;;
31746;SDS011;18319;48.974;8.462;2022-07-29T14:59:13;1.98;;;1.20;;
31746;SDS011;18319;48.974;8.462;2022-07-29T15:01:40;3.55;;;1.42;;
31746;SDS011;18319;48.974;8.462;2022-07-29T15:04:06;5.22;;;1.27;;
31746;SDS011;18319;48.974;8.462;2022-07-29T15:06:33;2.15;;;1.08;;
31746;SDS011;18319;48.974;8.462;2022-07-29T15:09:01;2.65;;;0.90;;
31746;SDS011;18319;48.974;8.462;2022-07-29T15:11:28;1.10;;;1.00;;
31746;SDS011;18319;48.974;8.462;2022-07-29T15:13:55;2.10;;;1.00;;
31746;SDS011;18319;48.974;8.462;2022-07-29T15:16:23;1.38;;;1.27;;
31746;SDS011;18319;48.974;8.462;2022-07-29T15:18:50;1.02;;;0.90;;
31746;SDS011;18319;48.974;8.462;2022-07-29T15:21:17;1.10;;;0.95;;
31746;SDS011;18319;48.974;8.462;2022-07-29T15:23:44;0.88;;;0.88;;